Capt James — WDI2369 — position and weather

sailwx.info

Track history (hours):
 
Tides and Currents Weather Stations Pressure Air Temp Water Temp Dewpoint Dewpoint Depression Visibility Wind Speed Wind Dir Waves Ship Positions

Capt James

Owner: Higman Barge Lines, Inc., Orange, TX. More information available from US FCC via Universal Licensing System and Coast Guard Vessel Documentation Center.

Last reported at 2017-Oct-20 13:05 UTC. Time now 2017-Oct-20 17:57 UTC.
Position N 29°51' W 092°21'.

Length 24 m; draft 3.2 m.

Type: Tow > 200 m length. MMSI: 367677450.

Date/timePositionNaut miles runAvg speedWind from/ knotsBaromVisibWave heightAir tempDewpointWater temp
2017-Oct-20 13:05N 29°51' W 092°21'0 4.2
2017-Oct-20 13:01N 29°51' W 092°21'2 4.3
2017-Oct-20 12:30N 29°50' W 092°18'2 3.9
2017-Oct-20 12:00N 29°49' W 092°17'2 4.8
2017-Oct-20 11:31N 29°48' W 092°14'2 4.0
2017-Oct-20 11:00N 29°47' W 092°12'1 2.1
2017-Oct-20 10:30N 29°47' W 092°11'2 4.8
2017-Oct-20 10:00N 29°47' W 092°08'2 4.7
2017-Oct-20 09:31N 29°48' W 092°06'2 4.7
2017-Oct-20 09:01N 29°49' W 092°03'2 4.9
2017-Oct-20 08:30N 29°50' W 092°01'55 4.0
2017-Oct-19 18:37N 29°37' W 090°59'3 5.1
2017-Oct-19 17:59N 29°34' W 090°57'2 5.3
2017-Oct-19 17:31N 29°33' W 090°54'3 5.1
2017-Oct-19 17:01N 29°32' W 090°52'3 5.2
2017-Oct-19 16:31N 29°32' W 090°49'2 5.0
2017-Oct-19 16:00N 29°32' W 090°46'2 4.6
2017-Oct-19 15:31N 29°34' W 090°44'2 3.8
2017-Oct-19 15:01N 29°35' W 090°43'2 3.3
2017-Oct-19 14:31N 29°37' W 090°42'2 4.1
2017-Oct-19 14:00N 29°36' W 090°39'2 4.7
2017-Oct-19 13:31N 29°35' W 090°37'2 4.3
2017-Oct-19 13:00N 29°34' W 090°35'2 4.7
2017-Oct-19 12:30N 29°34' W 090°32'2 4.9
2017-Oct-19 12:01N 29°34' W 090°29'3 4.9
2017-Oct-19 11:30N 29°33' W 090°26'14 4.2
2017-Oct-19 08:12N 29°40' W 090°12'1 4.8
2017-Oct-19 07:56N 29°41' W 090°11'  
2017-Oct-16 03:03N 29°57' W 090°23'0 0.0
2017-Oct-16 02:43N 29°57' W 090°23'0 0.0
2017-Oct-14 12:06N 29°57' W 090°23'0 0.0
2017-Oct-14 11:59N 29°57' W 090°23'0 0.0
2017-Oct-14 11:30N 29°57' W 090°23'0 0.0
2017-Oct-14 11:00N 29°57' W 090°23'0 0.0
2017-Oct-14 09:56N 29°57' W 090°23'0 0.0
2017-Oct-14 09:30N 29°57' W 090°23'0 0.0
2017-Oct-14 09:00N 29°57' W 090°23'0 0.0
2017-Oct-14 08:30N 29°57' W 090°23'0 0.0
2017-Oct-14 07:56N 29°57' W 090°23'0 0.0
2017-Oct-14 06:50N 29°57' W 090°23'0 0.0
2017-Oct-14 06:23N 29°57' W 090°23'0 0.0
2017-Oct-14 05:39N 29°57' W 090°23'0 0.0
2017-Oct-14 05:15N 29°57' W 090°23'0 0.0
2017-Oct-14 04:31N 29°57' W 090°23'0 0.0
2017-Oct-14 03:55N 29°57' W 090°23'0 0.0
2017-Oct-13 14:12N 29°57' W 090°23'0 0.0
2017-Oct-13 14:00N 29°57' W 090°23'0 0.0
2017-Oct-13 13:30N 29°57' W 090°23'0 0.0
2017-Oct-13 12:57N 29°57' W 090°23'0 0.0
2017-Oct-13 12:31N 29°57' W 090°23'0 0.0
2017-Oct-13 12:01N 29°57' W 090°23'  
Track history (hours):
 
Tides and Currents Weather Stations Pressure Air Temp Water Temp Dewpoint Dewpoint Depression Visibility Wind Speed Wind Dir Waves Ship Positions

Capt James

Owner: Higman Barge Lines, Inc., Orange, TX. More information available from US FCC via Universal Licensing System and Coast Guard Vessel Documentation Center.

Last reported at 2017-Oct-20 13:05 UTC. Time now 2017-Oct-20 17:57 UTC.
Position N 29°51' W 092°21'.

Length 24 m; draft 3.2 m.

Type: Tow > 200 m length. MMSI: 367677450.

Date/timePositionNaut miles runAvg speedWind from/ knotsBaromVisibWave heightAir tempDewpointWater temp
2017-Oct-20 13:05N 29°51' W 092°21'0 4.2
2017-Oct-20 13:01N 29°51' W 092°21'2 4.3
2017-Oct-20 12:30N 29°50' W 092°18'2 3.9
2017-Oct-20 12:00N 29°49' W 092°17'2 4.8
2017-Oct-20 11:31N 29°48' W 092°14'2 4.0
2017-Oct-20 11:00N 29°47' W 092°12'1 2.1
2017-Oct-20 10:30N 29°47' W 092°11'2 4.8
2017-Oct-20 10:00N 29°47' W 092°08'2 4.7
2017-Oct-20 09:31N 29°48' W 092°06'2 4.7
2017-Oct-20 09:01N 29°49' W 092°03'2 4.9
2017-Oct-20 08:30N 29°50' W 092°01'55 4.0
2017-Oct-19 18:37N 29°37' W 090°59'3 5.1
2017-Oct-19 17:59N 29°34' W 090°57'2 5.3
2017-Oct-19 17:31N 29°33' W 090°54'3 5.1
2017-Oct-19 17:01N 29°32' W 090°52'3 5.2
2017-Oct-19 16:31N 29°32' W 090°49'2 5.0
2017-Oct-19 16:00N 29°32' W 090°46'2 4.6
2017-Oct-19 15:31N 29°34' W 090°44'2 3.8
2017-Oct-19 15:01N 29°35' W 090°43'2 3.3
2017-Oct-19 14:31N 29°37' W 090°42'2 4.1
2017-Oct-19 14:00N 29°36' W 090°39'2 4.7
2017-Oct-19 13:31N 29°35' W 090°37'2 4.3
2017-Oct-19 13:00N 29°34' W 090°35'2 4.7
2017-Oct-19 12:30N 29°34' W 090°32'2 4.9
2017-Oct-19 12:01N 29°34' W 090°29'3 4.9
2017-Oct-19 11:30N 29°33' W 090°26'14 4.2
2017-Oct-19 08:12N 29°40' W 090°12'1 4.8
2017-Oct-19 07:56N 29°41' W 090°11'  
2017-Oct-16 03:03N 29°57' W 090°23'0 0.0
2017-Oct-16 02:43N 29°57' W 090°23'0 0.0
2017-Oct-14 12:06N 29°57' W 090°23'0 0.0
2017-Oct-14 11:59N 29°57' W 090°23'0 0.0
2017-Oct-14 11:30N 29°57' W 090°23'0 0.0
2017-Oct-14 11:00N 29°57' W 090°23'0 0.0
2017-Oct-14 09:56N 29°57' W 090°23'0 0.0
2017-Oct-14 09:30N 29°57' W 090°23'0 0.0
2017-Oct-14 09:00N 29°57' W 090°23'0 0.0
2017-Oct-14 08:30N 29°57' W 090°23'0 0.0
2017-Oct-14 07:56N 29°57' W 090°23'0 0.0
2017-Oct-14 06:50N 29°57' W 090°23'0 0.0
2017-Oct-14 06:23N 29°57' W 090°23'0 0.0
2017-Oct-14 05:39N 29°57' W 090°23'0 0.0
2017-Oct-14 05:15N 29°57' W 090°23'0 0.0
2017-Oct-14 04:31N 29°57' W 090°23'0 0.0
2017-Oct-14 03:55N 29°57' W 090°23'0 0.0
2017-Oct-13 14:12N 29°57' W 090°23'0 0.0
2017-Oct-13 14:00N 29°57' W 090°23'0 0.0
2017-Oct-13 13:30N 29°57' W 090°23'0 0.0
2017-Oct-13 12:57N 29°57' W 090°23'0 0.0
2017-Oct-13 12:31N 29°57' W 090°23'0 0.0
2017-Oct-13 12:01N 29°57' W 090°23'  

Dump ship's entire track history